sensor_id;sensor_type;location;lat;lon;timestamp;P1;durP1;ratioP1;P2;durP2;ratioP2
12623;SDS011;6377;42.836;23.998;2023-09-07T00:00:46;10.40;;;7.78;;
12623;SDS011;6377;42.836;23.998;2023-09-07T00:03:14;8.60;;;7.40;;
12623;SDS011;6377;42.836;23.998;2023-09-07T00:05:41;10.43;;;8.05;;
12623;SDS011;6377;42.836;23.998;2023-09-07T00:08:08;8.85;;;7.93;;
12623;SDS011;6377;42.836;23.998;2023-09-07T00:10:36;11.32;;;7.50;;
12623;SDS011;6377;42.836;23.998;2023-09-07T00:13:03;8.15;;;7.35;;
12623;SDS011;6377;42.836;23.998;2023-09-07T00:15:32;9.52;;;7.15;;
12623;SDS011;6377;42.836;23.998;2023-09-07T00:18:04;9.13;;;7.38;;
12623;SDS011;6377;42.836;23.998;2023-09-07T00:20:32;8.90;;;7.28;;
12623;SDS011;6377;42.836;23.998;2023-09-07T00:22:59;8.05;;;7.20;;
12623;SDS011;6377;42.836;23.998;2023-09-07T00:25:27;8.93;;;7.20;;
12623;SDS011;6377;42.836;23.998;2023-09-07T00:27:54;8.95;;;7.75;;
12623;SDS011;6377;42.836;23.998;2023-09-07T00:30:21;9.70;;;7.05;;
12623;SDS011;6377;42.836;23.998;2023-09-07T00:32:48;8.40;;;7.25;;
12623;SDS011;6377;42.836;23.998;2023-09-07T00:35:17;10.50;;;8.23;;
12623;SDS011;6377;42.836;23.998;2023-09-07T00:37:44;9.35;;;6.75;;
12623;SDS011;6377;42.836;23.998;2023-09-07T00:40:11;10.20;;;7.20;;
12623;SDS011;6377;42.836;23.998;2023-09-07T00:42:38;10.60;;;7.25;;
12623;SDS011;6377;42.836;23.998;2023-09-07T00:45:07;8.90;;;7.00;;
12623;SDS011;6377;42.836;23.998;2023-09-07T00:47:34;10.90;;;7.50;;
12623;SDS011;6377;42.836;23.998;2023-09-07T00:50:02;9.15;;;7.22;;
12623;SDS011;6377;42.836;23.998;2023-09-07T00:52:32;9.32;;;7.28;;
12623;SDS011;6377;42.836;23.998;2023-09-07T00:55:00;7.43;;;6.63;;
12623;SDS011;6377;42.836;23.998;2023-09-07T00:57:29;10.88;;;6.47;;
12623;SDS011;6377;42.836;23.998;2023-09-07T00:59:56;7.70;;;6.43;;
12623;SDS011;6377;42.836;23.998;2023-09-07T01:02:23;7.78;;;6.53;;
12623;SDS011;6377;42.836;23.998;2023-09-07T01:04:51;9.10;;;6.75;;
12623;SDS011;6377;42.836;23.998;2023-09-07T01:07:20;7.65;;;6.05;;
12623;SDS011;6377;42.836;23.998;2023-09-07T01:09:53;8.75;;;6.28;;
12623;SDS011;6377;42.836;23.998;2023-09-07T01:12:23;8.43;;;6.50;;
12623;SDS011;6377;42.836;23.998;2023-09-07T01:14:50;7.15;;;5.97;;
12623;SDS011;6377;42.836;23.998;2023-09-07T01:17:18;8.27;;;6.80;;
12623;SDS011;6377;42.836;23.998;2023-09-07T01:19:47;9.10;;;6.53;;
12623;SDS011;6377;42.836;23.998;2023-09-07T01:22:18;8.07;;;5.80;;
12623;SDS011;6377;42.836;23.998;2023-09-07T01:24:48;9.47;;;6.13;;
12623;SDS011;6377;42.836;23.998;2023-09-07T01:27:16;11.07;;;6.78;;
12623;SDS011;6377;42.836;23.998;2023-09-07T01:29:44;8.45;;;6.60;;
12623;SDS011;6377;42.836;23.998;2023-09-07T01:32:11;7.00;;;6.30;;
12623;SDS011;6377;42.836;23.998;2023-09-07T01:34:38;8.75;;;6.05;;
12623;SDS011;6377;42.836;23.998;2023-09-07T01:37:06;7.90;;;6.22;;
12623;SDS011;6377;42.836;23.998;2023-09-07T01:39:35;7.68;;;6.13;;
12623;SDS011;6377;42.836;23.998;2023-09-07T01:42:02;8.32;;;5.93;;
12623;SDS011;6377;42.836;23.998;2023-09-07T01:44:30;8.15;;;6.53;;
12623;SDS011;6377;42.836;23.998;2023-09-07T01:46:57;8.20;;;5.70;;
12623;SDS011;6377;42.836;23.998;2023-09-07T01:49:24;9.20;;;6.00;;
12623;SDS011;6377;42.836;23.998;2023-09-07T01:51:51;14.10;;;5.75;;
12623;SDS011;6377;42.836;23.998;2023-09-07T01:54:18;10.00;;;7.03;;
12623;SDS011;6377;42.836;23.998;2023-09-07T01:56:49;6.57;;;5.82;;
12623;SDS011;6377;42.836;23.998;2023-09-07T01:59:16;9.40;;;5.75;;
12623;SDS011;6377;42.836;23.998;2023-09-07T02:01:43;13.32;;;5.95;;
12623;SDS011;6377;42.836;23.998;2023-09-07T02:04:10;7.78;;;6.40;;
12623;SDS011;6377;42.836;23.998;2023-09-07T02:06:37;10.10;;;6.10;;
12623;SDS011;6377;42.836;23.998;2023-09-07T02:09:04;7.70;;;5.90;;
12623;SDS011;6377;42.836;23.998;2023-09-07T02:11:33;6.70;;;5.78;;
12623;SDS011;6377;42.836;23.998;2023-09-07T02:14:01;6.88;;;6.07;;
12623;SDS011;6377;42.836;23.998;2023-09-07T02:16:29;8.65;;;6.18;;
12623;SDS011;6377;42.836;23.998;2023-09-07T02:19:00;7.07;;;6.38;;
12623;SDS011;6377;42.836;23.998;2023-09-07T02:21:28;10.88;;;6.32;;
12623;SDS011;6377;42.836;23.998;2023-09-07T02:23:56;8.00;;;6.13;;
12623;SDS011;6377;42.836;23.998;2023-09-07T02:26:23;8.57;;;6.20;;
12623;SDS011;6377;42.836;23.998;2023-09-07T02:28:50;6.60;;;5.88;;
12623;SDS011;6377;42.836;23.998;2023-09-07T02:31:18;7.13;;;5.57;;
12623;SDS011;6377;42.836;23.998;2023-09-07T02:33:45;7.73;;;6.10;;
12623;SDS011;6377;42.836;23.998;2023-09-07T02:36:12;10.07;;;6.40;;
12623;SDS011;6377;42.836;23.998;2023-09-07T02:38:40;8.25;;;6.50;;
12623;SDS011;6377;42.836;23.998;2023-09-07T02:41:07;9.88;;;5.53;;
12623;SDS011;6377;42.836;23.998;2023-09-07T02:43:34;7.63;;;6.05;;
12623;SDS011;6377;42.836;23.998;2023-09-07T02:46:01;9.75;;;5.68;;
12623;SDS011;6377;42.836;23.998;2023-09-07T02:48:29;6.97;;;5.87;;
12623;SDS011;6377;42.836;23.998;2023-09-07T02:51:00;9.18;;;6.03;;
12623;SDS011;6377;42.836;23.998;2023-09-07T02:53:27;7.43;;;5.50;;
12623;SDS011;6377;42.836;23.998;2023-09-07T02:55:55;8.33;;;6.10;;
12623;SDS011;6377;42.836;23.998;2023-09-07T02:58:22;8.40;;;6.83;;
12623;SDS011;6377;42.836;23.998;2023-09-07T03:00:51;6.95;;;5.88;;
12623;SDS011;6377;42.836;23.998;2023-09-07T03:03:18;8.73;;;6.20;;
12623;SDS011;6377;42.836;23.998;2023-09-07T03:05:47;8.57;;;6.40;;
12623;SDS011;6377;42.836;23.998;2023-09-07T03:08:14;8.45;;;5.68;;
12623;SDS011;6377;42.836;23.998;2023-09-07T03:10:41;9.23;;;6.07;;
12623;SDS011;6377;42.836;23.998;2023-09-07T03:13:09;7.10;;;5.93;;
12623;SDS011;6377;42.836;23.998;2023-09-07T03:15:36;6.43;;;5.82;;
12623;SDS011;6377;42.836;23.998;2023-09-07T03:18:04;9.50;;;5.82;;
12623;SDS011;6377;42.836;23.998;2023-09-07T03:20:32;6.72;;;5.93;;
12623;SDS011;6377;42.836;23.998;2023-09-07T03:23:01;6.47;;;5.65;;
12623;SDS011;6377;42.836;23.998;2023-09-07T03:25:29;8.65;;;5.90;;
12623;SDS011;6377;42.836;23.998;2023-09-07T03:27:56;7.05;;;6.32;;
12623;SDS011;6377;42.836;23.998;2023-09-07T03:30:23;7.38;;;5.93;;
12623;SDS011;6377;42.836;23.998;2023-09-07T03:32:50;7.38;;;5.88;;
12623;SDS011;6377;42.836;23.998;2023-09-07T03:35:17;6.50;;;5.90;;
12623;SDS011;6377;42.836;23.998;2023-09-07T03:37:45;7.78;;;6.00;;
12623;SDS011;6377;42.836;23.998;2023-09-07T03:40:14;6.13;;;5.20;;
12623;SDS011;6377;42.836;23.998;2023-09-07T03:42:41;6.43;;;5.38;;
12623;SDS011;6377;42.836;23.998;2023-09-07T03:45:09;6.70;;;5.88;;
12623;SDS011;6377;42.836;23.998;2023-09-07T03:47:36;7.30;;;6.05;;
12623;SDS011;6377;42.836;23.998;2023-09-07T03:50:04;7.25;;;5.93;;
12623;SDS011;6377;42.836;23.998;2023-09-07T03:52:32;9.63;;;6.03;;
12623;SDS011;6377;42.836;23.998;2023-09-07T03:54:59;8.23;;;6.38;;
12623;SDS011;6377;42.836;23.998;2023-09-07T03:57:28;11.63;;;6.55;;
12623;SDS011;6377;42.836;23.998;2023-09-07T03:59:56;7.97;;;6.20;;
12623;SDS011;6377;42.836;23.998;2023-09-07T04:02:24;7.93;;;6.30;;
12623;SDS011;6377;42.836;23.998;2023-09-07T04:04:51;8.52;;;6.38;;
12623;SDS011;6377;42.836;23.998;2023-09-07T04:07:20;6.68;;;6.00;;
12623;SDS011;6377;42.836;23.998;2023-09-07T04:09:47;8.85;;;6.25;;
12623;SDS011;6377;42.836;23.998;2023-09-07T04:12:16;8.15;;;5.90;;
12623;SDS011;6377;42.836;23.998;2023-09-07T04:14:44;7.00;;;5.85;;
12623;SDS011;6377;42.836;23.998;2023-09-07T04:17:12;7.95;;;6.22;;
12623;SDS011;6377;42.836;23.998;2023-09-07T04:19:39;15.15;;;6.85;;
12623;SDS011;6377;42.836;23.998;2023-09-07T04:22:06;12.68;;;6.65;;
12623;SDS011;6377;42.836;23.998;2023-09-07T04:24:33;13.95;;;6.00;;
12623;SDS011;6377;42.836;23.998;2023-09-07T04:27:00;8.40;;;6.25;;
12623;SDS011;6377;42.836;23.998;2023-09-07T04:29:29;10.95;;;6.18;;
12623;SDS011;6377;42.836;23.998;2023-09-07T04:31:57;12.40;;;7.30;;
12623;SDS011;6377;42.836;23.998;2023-09-07T04:34:24;11.80;;;6.85;;
12623;SDS011;6377;42.836;23.998;2023-09-07T04:36:51;12.73;;;7.80;;
12623;SDS011;6377;42.836;23.998;2023-09-07T04:39:19;8.38;;;6.57;;
12623;SDS011;6377;42.836;23.998;2023-09-07T04:41:47;8.23;;;6.35;;
12623;SDS011;6377;42.836;23.998;2023-09-07T04:44:14;7.00;;;6.30;;
12623;SDS011;6377;42.836;23.998;2023-09-07T04:46:41;7.03;;;6.30;;
12623;SDS011;6377;42.836;23.998;2023-09-07T04:49:10;8.82;;;7.90;;
12623;SDS011;6377;42.836;23.998;2023-09-07T04:51:37;10.65;;;6.93;;
12623;SDS011;6377;42.836;23.998;2023-09-07T04:54:04;6.80;;;6.10;;
12623;SDS011;6377;42.836;23.998;2023-09-07T04:56:31;12.00;;;7.15;;
12623;SDS011;6377;42.836;23.998;2023-09-07T04:58:58;8.50;;;6.68;;
12623;SDS011;6377;42.836;23.998;2023-09-07T05:01:25;8.93;;;6.95;;
12623;SDS011;6377;42.836;23.998;2023-09-07T05:03:52;10.65;;;7.15;;
12623;SDS011;6377;42.836;23.998;2023-09-07T05:06:21;10.20;;;6.30;;
12623;SDS011;6377;42.836;23.998;2023-09-07T05:08:49;10.63;;;7.32;;
12623;SDS011;6377;42.836;23.998;2023-09-07T05:11:16;10.70;;;6.90;;
12623;SDS011;6377;42.836;23.998;2023-09-07T05:13:43;9.35;;;7.15;;
12623;SDS011;6377;42.836;23.998;2023-09-07T05:16:10;8.18;;;7.38;;
12623;SDS011;6377;42.836;23.998;2023-09-07T05:18:37;10.63;;;7.03;;
12623;SDS011;6377;42.836;23.998;2023-09-07T05:21:13;8.73;;;7.20;;
12623;SDS011;6377;42.836;23.998;2023-09-07T05:23:42;10.38;;;7.38;;
12623;SDS011;6377;42.836;23.998;2023-09-07T05:26:10;11.15;;;7.20;;
12623;SDS011;6377;42.836;23.998;2023-09-07T05:28:39;10.57;;;7.32;;
12623;SDS011;6377;42.836;23.998;2023-09-07T05:31:06;9.02;;;7.70;;
12623;SDS011;6377;42.836;23.998;2023-09-07T05:33:34;11.80;;;9.63;;
12623;SDS011;6377;42.836;23.998;2023-09-07T05:36:01;10.57;;;8.15;;
12623;SDS011;6377;42.836;23.998;2023-09-07T05:38:28;9.40;;;7.22;;
12623;SDS011;6377;42.836;23.998;2023-09-07T05:40:56;8.60;;;7.38;;
12623;SDS011;6377;42.836;23.998;2023-09-07T05:43:23;9.05;;;7.10;;
12623;SDS011;6377;42.836;23.998;2023-09-07T05:45:50;12.23;;;8.63;;
12623;SDS011;6377;42.836;23.998;2023-09-07T05:48:17;11.13;;;8.48;;
12623;SDS011;6377;42.836;23.998;2023-09-07T05:50:45;9.67;;;7.83;;
12623;SDS011;6377;42.836;23.998;2023-09-07T05:53:12;10.47;;;7.90;;
12623;SDS011;6377;42.836;23.998;2023-09-07T05:55:39;8.63;;;7.70;;
12623;SDS011;6377;42.836;23.998;2023-09-07T05:58:08;8.20;;;7.38;;
12623;SDS011;6377;42.836;23.998;2023-09-07T06:00:35;13.03;;;7.40;;
12623;SDS011;6377;42.836;23.998;2023-09-07T06:03:04;10.75;;;7.18;;
12623;SDS011;6377;42.836;23.998;2023-09-07T06:05:33;7.88;;;7.07;;
12623;SDS011;6377;42.836;23.998;2023-09-07T06:08:11;8.20;;;7.03;;
12623;SDS011;6377;42.836;23.998;2023-09-07T06:10:38;8.55;;;7.63;;
12623;SDS011;6377;42.836;23.998;2023-09-07T06:13:05;8.93;;;7.45;;
12623;SDS011;6377;42.836;23.998;2023-09-07T06:15:34;7.32;;;6.50;;
12623;SDS011;6377;42.836;23.998;2023-09-07T06:18:01;12.95;;;8.32;;
12623;SDS011;6377;42.836;23.998;2023-09-07T06:20:29;13.20;;;8.90;;
12623;SDS011;6377;42.836;23.998;2023-09-07T06:22:56;9.95;;;7.63;;
12623;SDS011;6377;42.836;23.998;2023-09-07T06:25:23;8.55;;;7.28;;
12623;SDS011;6377;42.836;23.998;2023-09-07T06:27:50;15.02;;;9.30;;
12623;SDS011;6377;42.836;23.998;2023-09-07T06:30:17;12.77;;;8.77;;
12623;SDS011;6377;42.836;23.998;2023-09-07T06:32:46;10.70;;;7.97;;
12623;SDS011;6377;42.836;23.998;2023-09-07T06:35:16;11.75;;;7.90;;
12623;SDS011;6377;42.836;23.998;2023-09-07T06:37:44;7.95;;;7.15;;
12623;SDS011;6377;42.836;23.998;2023-09-07T06:40:12;13.45;;;8.20;;
12623;SDS011;6377;42.836;23.998;2023-09-07T06:42:40;8.38;;;7.38;;
12623;SDS011;6377;42.836;23.998;2023-09-07T06:45:08;9.57;;;7.63;;
12623;SDS011;6377;42.836;23.998;2023-09-07T06:47:36;14.82;;;8.95;;
12623;SDS011;6377;42.836;23.998;2023-09-07T06:50:05;8.02;;;7.07;;
12623;SDS011;6377;42.836;23.998;2023-09-07T06:52:33;10.07;;;7.13;;
12623;SDS011;6377;42.836;23.998;2023-09-07T06:55:00;10.25;;;8.35;;
12623;SDS011;6377;42.836;23.998;2023-09-07T06:57:27;9.82;;;7.70;;
12623;SDS011;6377;42.836;23.998;2023-09-07T06:59:54;16.17;;;12.43;;
12623;SDS011;6377;42.836;23.998;2023-09-07T07:02:21;12.55;;;11.13;;
12623;SDS011;6377;42.836;23.998;2023-09-07T07:04:49;16.67;;;11.60;;
12623;SDS011;6377;42.836;23.998;2023-09-07T07:07:17;14.73;;;12.20;;
12623;SDS011;6377;42.836;23.998;2023-09-07T07:09:45;14.88;;;12.32;;
12623;SDS011;6377;42.836;23.998;2023-09-07T07:12:12;17.75;;;13.25;;
12623;SDS011;6377;42.836;23.998;2023-09-07T07:14:39;17.23;;;12.00;;
12623;SDS011;6377;42.836;23.998;2023-09-07T07:17:06;18.02;;;13.00;;
12623;SDS011;6377;42.836;23.998;2023-09-07T07:19:34;15.05;;;11.90;;
12623;SDS011;6377;42.836;23.998;2023-09-07T07:22:01;13.40;;;11.88;;
12623;SDS011;6377;42.836;23.998;2023-09-07T07:24:29;15.55;;;11.70;;
12623;SDS011;6377;42.836;23.998;2023-09-07T07:26:56;14.40;;;10.27;;
12623;SDS011;6377;42.836;23.998;2023-09-07T07:29:24;10.10;;;8.63;;
12623;SDS011;6377;42.836;23.998;2023-09-07T07:31:51;12.43;;;10.50;;
12623;SDS011;6377;42.836;23.998;2023-09-07T07:34:18;11.10;;;9.13;;
12623;SDS011;6377;42.836;23.998;2023-09-07T07:36:45;12.30;;;8.38;;
12623;SDS011;6377;42.836;23.998;2023-09-07T07:39:12;9.45;;;7.57;;
12623;SDS011;6377;42.836;23.998;2023-09-07T07:41:42;11.88;;;8.13;;
12623;SDS011;6377;42.836;23.998;2023-09-07T07:44:10;10.40;;;7.43;;
12623;SDS011;6377;42.836;23.998;2023-09-07T07:46:38;10.77;;;7.95;;
12623;SDS011;6377;42.836;23.998;2023-09-07T07:49:05;10.95;;;7.22;;
12623;SDS011;6377;42.836;23.998;2023-09-07T07:51:32;15.27;;;7.80;;
12623;SDS011;6377;42.836;23.998;2023-09-07T07:53:59;11.27;;;6.80;;
12623;SDS011;6377;42.836;23.998;2023-09-07T07:56:26;8.52;;;6.65;;
12623;SDS011;6377;42.836;23.998;2023-09-07T07:58:55;9.80;;;6.70;;
12623;SDS011;6377;42.836;23.998;2023-09-07T08:01:22;7.18;;;6.47;;
12623;SDS011;6377;42.836;23.998;2023-09-07T08:03:51;7.22;;;5.80;;
12623;SDS011;6377;42.836;23.998;2023-09-07T08:06:19;8.23;;;5.85;;
12623;SDS011;6377;42.836;23.998;2023-09-07T08:08:46;6.93;;;5.90;;
12623;SDS011;6377;42.836;23.998;2023-09-07T08:11:13;6.25;;;5.30;;
12623;SDS011;6377;42.836;23.998;2023-09-07T08:13:40;8.82;;;5.90;;
12623;SDS011;6377;42.836;23.998;2023-09-07T08:16:13;9.82;;;5.05;;
12623;SDS011;6377;42.836;23.998;2023-09-07T08:18:40;9.65;;;5.28;;
12623;SDS011;6377;42.836;23.998;2023-09-07T08:21:07;7.03;;;5.32;;
12623;SDS011;6377;42.836;23.998;2023-09-07T08:23:34;7.15;;;5.25;;
12623;SDS011;6377;42.836;23.998;2023-09-07T08:26:01;5.80;;;4.95;;
12623;SDS011;6377;42.836;23.998;2023-09-07T08:28:30;8.45;;;5.03;;
12623;SDS011;6377;42.836;23.998;2023-09-07T08:30:58;7.63;;;5.35;;
12623;SDS011;6377;42.836;23.998;2023-09-07T08:33:27;5.10;;;4.60;;
12623;SDS011;6377;42.836;23.998;2023-09-07T08:35:55;5.38;;;4.47;;
12623;SDS011;6377;42.836;23.998;2023-09-07T08:38:25;7.78;;;5.00;;
12623;SDS011;6377;42.836;23.998;2023-09-07T08:40:53;9.50;;;5.65;;
12623;SDS011;6377;42.836;23.998;2023-09-07T08:43:21;6.38;;;5.13;;
12623;SDS011;6377;42.836;23.998;2023-09-07T08:45:50;10.18;;;5.30;;
12623;SDS011;6377;42.836;23.998;2023-09-07T08:48:23;9.68;;;5.10;;
12623;SDS011;6377;42.836;23.998;2023-09-07T08:50:53;6.50;;;4.82;;
12623;SDS011;6377;42.836;23.998;2023-09-07T08:53:21;6.07;;;4.75;;
12623;SDS011;6377;42.836;23.998;2023-09-07T08:55:50;7.68;;;4.63;;
12623;SDS011;6377;42.836;23.998;2023-09-07T08:58:17;6.72;;;5.07;;
12623;SDS011;6377;42.836;23.998;2023-09-07T09:00:44;6.78;;;4.53;;
12623;SDS011;6377;42.836;23.998;2023-09-07T09:03:11;8.18;;;4.65;;
12623;SDS011;6377;42.836;23.998;2023-09-07T09:05:39;5.90;;;4.55;;
12623;SDS011;6377;42.836;23.998;2023-09-07T09:08:08;6.05;;;4.50;;
12623;SDS011;6377;42.836;23.998;2023-09-07T09:10:37;6.40;;;4.30;;
12623;SDS011;6377;42.836;23.998;2023-09-07T09:13:06;8.23;;;4.43;;
12623;SDS011;6377;42.836;23.998;2023-09-07T09:15:33;6.13;;;4.20;;
12623;SDS011;6377;42.836;23.998;2023-09-07T09:18:08;6.65;;;4.20;;
12623;SDS011;6377;42.836;23.998;2023-09-07T09:20:37;6.32;;;4.22;;
12623;SDS011;6377;42.836;23.998;2023-09-07T09:23:04;4.85;;;4.38;;
12623;SDS011;6377;42.836;23.998;2023-09-07T09:25:33;5.47;;;4.15;;
12623;SDS011;6377;42.836;23.998;2023-09-07T09:28:01;4.95;;;3.85;;
12623;SDS011;6377;42.836;23.998;2023-09-07T09:30:28;8.10;;;6.25;;
12623;SDS011;6377;42.836;23.998;2023-09-07T09:32:55;6.70;;;4.57;;
12623;SDS011;6377;42.836;23.998;2023-09-07T09:35:25;5.18;;;3.92;;
12623;SDS011;6377;42.836;23.998;2023-09-07T09:37:53;6.07;;;3.83;;
12623;SDS011;6377;42.836;23.998;2023-09-07T09:40:20;5.78;;;4.13;;
12623;SDS011;6377;42.836;23.998;2023-09-07T09:42:49;5.70;;;3.75;;
12623;SDS011;6377;42.836;23.998;2023-09-07T09:45:21;6.10;;;4.10;;
12623;SDS011;6377;42.836;23.998;2023-09-07T09:47:49;5.43;;;4.07;;
12623;SDS011;6377;42.836;23.998;2023-09-07T09:50:17;5.93;;;3.90;;
12623;SDS011;6377;42.836;23.998;2023-09-07T09:52:46;4.43;;;4.03;;
12623;SDS011;6377;42.836;23.998;2023-09-07T09:55:14;5.85;;;3.80;;
12623;SDS011;6377;42.836;23.998;2023-09-07T09:57:42;4.05;;;3.60;;
12623;SDS011;6377;42.836;23.998;2023-09-07T10:00:11;5.30;;;3.92;;
12623;SDS011;6377;42.836;23.998;2023-09-07T10:02:54;5.43;;;3.80;;
12623;SDS011;6377;42.836;23.998;2023-09-07T10:05:29;5.25;;;3.65;;
12623;SDS011;6377;42.836;23.998;2023-09-07T10:08:01;10.20;;;3.85;;
12623;SDS011;6377;42.836;23.998;2023-09-07T10:10:34;5.70;;;3.90;;
12623;SDS011;6377;42.836;23.998;2023-09-07T10:13:02;6.78;;;3.75;;
12623;SDS011;6377;42.836;23.998;2023-09-07T10:15:32;4.80;;;3.58;;
12623;SDS011;6377;42.836;23.998;2023-09-07T10:18:09;5.40;;;3.85;;
12623;SDS011;6377;42.836;23.998;2023-09-07T10:23:35;4.35;;;3.67;;
12623;SDS011;6377;42.836;23.998;2023-09-07T10:26:05;4.90;;;3.55;;
12623;SDS011;6377;42.836;23.998;2023-09-07T10:28:36;5.18;;;3.65;;
12623;SDS011;6377;42.836;23.998;2023-09-07T10:31:06;4.43;;;3.45;;
12623;SDS011;6377;42.836;23.998;2023-09-07T10:33:39;4.57;;;3.60;;
12623;SDS011;6377;42.836;23.998;2023-09-07T10:36:06;7.65;;;3.60;;
12623;SDS011;6377;42.836;23.998;2023-09-07T10:38:34;6.10;;;3.80;;
12623;SDS011;6377;42.836;23.998;2023-09-07T10:41:02;4.25;;;3.40;;
12623;SDS011;6377;42.836;23.998;2023-09-07T10:43:31;9.30;;;3.78;;
12623;SDS011;6377;42.836;23.998;2023-09-07T10:45:59;4.13;;;3.20;;
12623;SDS011;6377;42.836;23.998;2023-09-07T10:48:30;4.65;;;3.65;;
12623;SDS011;6377;42.836;23.998;2023-09-07T10:50:57;7.45;;;4.07;;
12623;SDS011;6377;42.836;23.998;2023-09-07T10:53:24;4.40;;;3.95;;
12623;SDS011;6377;42.836;23.998;2023-09-07T10:55:53;5.63;;;3.58;;
12623;SDS011;6377;42.836;23.998;2023-09-07T10:58:26;5.45;;;3.72;;
12623;SDS011;6377;42.836;23.998;2023-09-07T11:00:54;3.95;;;3.55;;
12623;SDS011;6377;42.836;23.998;2023-09-07T11:03:22;5.05;;;3.70;;
12623;SDS011;6377;42.836;23.998;2023-09-07T11:05:52;5.90;;;3.83;;
12623;SDS011;6377;42.836;23.998;2023-09-07T11:08:21;5.15;;;3.80;;
12623;SDS011;6377;42.836;23.998;2023-09-07T11:10:49;6.85;;;4.03;;
12623;SDS011;6377;42.836;23.998;2023-09-07T11:13:17;5.45;;;3.63;;
12623;SDS011;6377;42.836;23.998;2023-09-07T11:15:45;4.40;;;3.80;;
12623;SDS011;6377;42.836;23.998;2023-09-07T11:18:12;4.40;;;4.00;;
12623;SDS011;6377;42.836;23.998;2023-09-07T11:20:39;5.65;;;4.25;;
12623;SDS011;6377;42.836;23.998;2023-09-07T11:23:10;5.43;;;3.80;;
12623;SDS011;6377;42.836;23.998;2023-09-07T11:25:38;5.50;;;3.65;;
12623;SDS011;6377;42.836;23.998;2023-09-07T11:28:05;5.05;;;3.80;;
12623;SDS011;6377;42.836;23.998;2023-09-07T11:30:33;5.05;;;3.65;;
12623;SDS011;6377;42.836;23.998;2023-09-07T11:33:01;6.30;;;3.97;;
12623;SDS011;6377;42.836;23.998;2023-09-07T11:35:29;4.47;;;3.50;;
12623;SDS011;6377;42.836;23.998;2023-09-07T11:37:56;5.18;;;4.00;;
12623;SDS011;6377;42.836;23.998;2023-09-07T11:40:27;4.40;;;3.83;;
12623;SDS011;6377;42.836;23.998;2023-09-07T11:42:54;4.20;;;3.80;;
12623;SDS011;6377;42.836;23.998;2023-09-07T11:45:21;4.10;;;3.70;;
12623;SDS011;6377;42.836;23.998;2023-09-07T11:47:48;4.30;;;3.70;;
12623;SDS011;6377;42.836;23.998;2023-09-07T11:50:16;5.82;;;3.50;;
12623;SDS011;6377;42.836;23.998;2023-09-07T11:52:44;5.57;;;3.95;;
12623;SDS011;6377;42.836;23.998;2023-09-07T11:55:13;5.38;;;3.50;;
12623;SDS011;6377;42.836;23.998;2023-09-07T11:57:42;6.45;;;3.65;;
12623;SDS011;6377;42.836;23.998;2023-09-07T12:00:10;6.53;;;3.58;;
12623;SDS011;6377;42.836;23.998;2023-09-07T12:02:38;4.43;;;3.70;;
12623;SDS011;6377;42.836;23.998;2023-09-07T12:05:05;4.57;;;3.92;;
12623;SDS011;6377;42.836;23.998;2023-09-07T12:07:34;5.65;;;3.92;;
12623;SDS011;6377;42.836;23.998;2023-09-07T12:10:02;5.80;;;4.03;;
12623;SDS011;6377;42.836;23.998;2023-09-07T12:12:29;5.95;;;3.78;;
12623;SDS011;6377;42.836;23.998;2023-09-07T12:14:58;6.00;;;3.97;;
12623;SDS011;6377;42.836;23.998;2023-09-07T12:17:25;4.53;;;3.97;;
12623;SDS011;6377;42.836;23.998;2023-09-07T12:19:52;6.78;;;4.18;;
12623;SDS011;6377;42.836;23.998;2023-09-07T12:22:19;5.82;;;3.97;;
12623;SDS011;6377;42.836;23.998;2023-09-07T12:24:46;5.43;;;4.10;;
12623;SDS011;6377;42.836;23.998;2023-09-07T12:27:14;8.43;;;4.65;;
12623;SDS011;6377;42.836;23.998;2023-09-07T12:29:41;4.35;;;3.85;;
12623;SDS011;6377;42.836;23.998;2023-09-07T12:32:10;18.95;;;15.30;;
12623;SDS011;6377;42.836;23.998;2023-09-07T12:34:37;6.07;;;4.95;;
12623;SDS011;6377;42.836;23.998;2023-09-07T12:37:04;5.85;;;4.32;;
12623;SDS011;6377;42.836;23.998;2023-09-07T12:39:32;4.50;;;3.90;;
12623;SDS011;6377;42.836;23.998;2023-09-07T12:41:59;8.60;;;4.30;;
12623;SDS011;6377;42.836;23.998;2023-09-07T12:44:26;8.25;;;3.95;;
12623;SDS011;6377;42.836;23.998;2023-09-07T12:46:53;7.28;;;3.92;;
12623;SDS011;6377;42.836;23.998;2023-09-07T12:49:22;11.55;;;4.03;;
12623;SDS011;6377;42.836;23.998;2023-09-07T12:51:49;6.30;;;3.97;;
12623;SDS011;6377;42.836;23.998;2023-09-07T12:54:17;15.25;;;5.13;;
12623;SDS011;6377;42.836;23.998;2023-09-07T12:56:44;6.93;;;4.20;;
12623;SDS011;6377;42.836;23.998;2023-09-07T12:59:11;5.82;;;3.97;;
12623;SDS011;6377;42.836;23.998;2023-09-07T13:01:38;7.78;;;3.95;;
12623;SDS011;6377;42.836;23.998;2023-09-07T13:04:05;9.40;;;3.97;;
12623;SDS011;6377;42.836;23.998;2023-09-07T13:06:34;4.90;;;4.00;;
12623;SDS011;6377;42.836;23.998;2023-09-07T13:09:01;5.30;;;4.25;;
12623;SDS011;6377;42.836;23.998;2023-09-07T13:11:29;6.93;;;4.32;;
12623;SDS011;6377;42.836;23.998;2023-09-07T13:13:57;6.35;;;3.80;;
12623;SDS011;6377;42.836;23.998;2023-09-07T13:16:24;5.82;;;3.88;;
12623;SDS011;6377;42.836;23.998;2023-09-07T13:18:51;5.90;;;4.57;;
12623;SDS011;6377;42.836;23.998;2023-09-07T13:21:18;7.38;;;4.30;;
12623;SDS011;6377;42.836;23.998;2023-09-07T13:23:47;5.57;;;3.80;;
12623;SDS011;6377;42.836;23.998;2023-09-07T13:26:14;5.00;;;3.53;;
12623;SDS011;6377;42.836;23.998;2023-09-07T13:28:41;7.88;;;4.10;;
12623;SDS011;6377;42.836;23.998;2023-09-07T13:31:08;5.28;;;4.00;;
12623;SDS011;6377;42.836;23.998;2023-09-07T13:33:35;6.53;;;4.00;;
12623;SDS011;6377;42.836;23.998;2023-09-07T13:36:03;4.53;;;3.95;;
12623;SDS011;6377;42.836;23.998;2023-09-07T13:38:31;6.70;;;4.65;;
12623;SDS011;6377;42.836;23.998;2023-09-07T13:41:00;4.65;;;3.88;;
12623;SDS011;6377;42.836;23.998;2023-09-07T13:43:27;6.30;;;4.30;;
12623;SDS011;6377;42.836;23.998;2023-09-07T13:45:54;4.97;;;4.18;;
12623;SDS011;6377;42.836;23.998;2023-09-07T13:48:21;4.45;;;3.70;;
12623;SDS011;6377;42.836;23.998;2023-09-07T13:50:48;4.82;;;4.05;;
12623;SDS011;6377;42.836;23.998;2023-09-07T13:53:15;6.50;;;4.40;;
12623;SDS011;6377;42.836;23.998;2023-09-07T13:55:42;4.70;;;4.00;;
12623;SDS011;6377;42.836;23.998;2023-09-07T13:58:13;7.25;;;4.55;;
12623;SDS011;6377;42.836;23.998;2023-09-07T14:00:40;5.28;;;4.10;;
12623;SDS011;6377;42.836;23.998;2023-09-07T14:03:07;6.20;;;4.20;;
12623;SDS011;6377;42.836;23.998;2023-09-07T14:05:34;4.57;;;3.90;;
12623;SDS011;6377;42.836;23.998;2023-09-07T14:08:01;4.88;;;3.97;;
12623;SDS011;6377;42.836;23.998;2023-09-07T14:10:28;7.20;;;4.50;;
12623;SDS011;6377;42.836;23.998;2023-09-07T14:12:55;7.85;;;4.57;;
12623;SDS011;6377;42.836;23.998;2023-09-07T14:15:24;8.20;;;4.43;;
12623;SDS011;6377;42.836;23.998;2023-09-07T14:17:51;7.25;;;4.20;;
12623;SDS011;6377;42.836;23.998;2023-09-07T14:20:18;5.28;;;3.92;;
12623;SDS011;6377;42.836;23.998;2023-09-07T14:22:45;4.65;;;4.18;;
12623;SDS011;6377;42.836;23.998;2023-09-07T14:25:13;4.65;;;3.90;;
12623;SDS011;6377;42.836;23.998;2023-09-07T14:27:41;5.40;;;4.00;;
12623;SDS011;6377;42.836;23.998;2023-09-07T14:30:09;8.32;;;4.35;;
12623;SDS011;6377;42.836;23.998;2023-09-07T14:32:38;5.13;;;4.35;;
12623;SDS011;6377;42.836;23.998;2023-09-07T14:35:05;5.10;;;4.57;;
12623;SDS011;6377;42.836;23.998;2023-09-07T14:37:34;7.43;;;4.65;;
12623;SDS011;6377;42.836;23.998;2023-09-07T14:40:01;6.35;;;4.72;;
12623;SDS011;6377;42.836;23.998;2023-09-07T14:42:28;7.75;;;4.80;;
12623;SDS011;6377;42.836;23.998;2023-09-07T14:45:09;5.95;;;4.50;;
12623;SDS011;6377;42.836;23.998;2023-09-07T14:47:36;6.20;;;4.65;;
12623;SDS011;6377;42.836;23.998;2023-09-07T14:50:06;6.38;;;4.70;;